NCAR-RAP Real-Time Weather Data

Output produced by METARs form (08 May 2021  16:39 UTC)
found at http://weather.rap.ucar.edu/surface/
 
KASE 081553Z 02003KT 10SM FEW042 SCT070 BKN090 10/M01 A2999 RMK AO2 RAB19E38 SLP060 P0000 T01001006
KASE 081453Z COR 34013G19KT 7SM SCT040 BKN080 11/M04 A2996 RMK AO2 SLP040 T01061039 50005
KASE 081353Z 14005KT 10SM BKN045 08/M04 A2998 RMK AO2 SLP047 T00781044
KASE 081253Z COR 16005KT 10SM BKN110 06/M06 A2997 RMK AO2 SLP045 T00611056
KASE 081153Z AUTO 19006KT 10SM CLR 04/M06 A2994 RMK AO2 SLP040 T00441061 10089 20033 53007
KASE 081053Z AUTO 20005KT 10SM CLR 06/M07 A2992 RMK AO2 SLP024 T00611072
KASE 080953Z AUTO 21007KT 10SM CLR 06/M06 A2991 RMK AO2 SLP021 T00561061
KASE 080853Z AUTO 19006KT 10SM CLR 07/M07 A2992 RMK AO2 SLP019 T00721067 58010
KASE 080753Z AUTO 20006KT 10SM CLR 08/M06 A2993 RMK AO2 SLP024 T00781061
KASE 080653Z AUTO 20007KT 10SM CLR 06/M04 A2995 RMK AO2 SLP036 T00611044 402170033
KASE 080553Z AUTO 20009KT 10SM CLR 08/M04 A2996 RMK AO2 SLP036 T00781039 10206 20078 58002
KASE 080453Z AUTO 22010KT 10SM CLR 09/M03 A2998 RMK AO2 SLP036 T00941028
KASE 080353Z AUTO 19007KT 10SM CLR 12/M02 A2999 RMK AO2 SLP040 T01171022
KASE 080253Z AUTO 14009KT 10SM SCT120 16/M03 A2997 RMK AO2 SLP033 T01561028 55006